createdAt,value
2024-02-13T00:01:19.156Z,88.90
2024-02-13T00:04:07.210Z,89.31
2024-02-13T00:06:57.175Z,89.35
2024-02-13T00:09:44.285Z,89.30
2024-02-13T00:12:30.071Z,89.31
2024-02-13T00:15:20.237Z,89.73
2024-02-13T00:18:07.159Z,89.75
2024-02-13T00:20:54.985Z,89.80
2024-02-13T00:23:41.254Z,90.03
2024-02-13T00:26:27.721Z,89.95
2024-02-13T00:29:13.974Z,89.84
2024-02-13T00:32:20.142Z,90.04
2024-02-13T00:35:06.985Z,90.11
2024-02-13T00:37:52.904Z,89.67
2024-02-13T00:40:38.674Z,89.93
2024-02-13T00:43:24.780Z,89.64
2024-02-13T00:46:11.398Z,90.00
2024-02-13T00:49:17.514Z,90.08
2024-02-13T00:52:24.723Z,89.50
2024-02-13T00:55:30.648Z,89.69
2024-02-13T00:58:36.715Z,90.11
2024-02-13T01:01:42.854Z,90.18
2024-02-13T01:04:28.736Z,90.00
2024-02-13T01:07:14.663Z,89.81
2024-02-13T01:10:00.415Z,89.53
2024-02-13T01:12:47.965Z,89.55
2024-02-13T01:15:33.877Z,90.08
2024-02-13T01:18:25.712Z,90.01
2024-02-13T01:21:15.298Z,89.76
2024-02-13T01:24:01.462Z,90.31
2024-02-13T01:26:47.086Z,90.44
2024-02-13T01:29:38.341Z,90.17
2024-02-13T01:32:25.709Z,90.18
2024-02-13T01:35:12.997Z,90.03
2024-02-13T01:37:58.535Z,90.13
2024-02-13T01:40:47.812Z,90.08
2024-02-13T01:43:34.123Z,90.28
2024-02-13T01:46:21.183Z,90.33
2024-02-13T01:49:08.939Z,90.95
2024-02-13T01:51:56.105Z,91.06
2024-02-13T01:54:42.834Z,91.08
2024-02-13T01:57:31.182Z,91.01
2024-02-13T02:00:21.029Z,91.10
2024-02-13T02:03:09.113Z,91.22
2024-02-13T02:05:54.956Z,91.15
2024-02-13T02:08:41.184Z,91.13
2024-02-13T02:11:27.166Z,91.49
2024-02-13T02:14:13.233Z,91.09
2024-02-13T02:17:09.543Z,90.79
2024-02-13T02:19:55.644Z,90.26
2024-02-13T02:22:41.775Z,90.45
2024-02-13T02:25:27.637Z,90.53
2024-02-13T02:28:13.976Z,90.88
2024-02-13T02:31:00.068Z,90.90
2024-02-13T02:33:47.659Z,91.24
2024-02-13T02:36:33.990Z,90.81
2024-02-13T02:39:20.160Z,90.74
2024-02-13T02:42:06.041Z,90.52
2024-02-13T02:44:51.990Z,90.15
2024-02-13T02:47:37.883Z,90.20
2024-02-13T02:50:24.281Z,90.42
2024-02-13T02:53:10.502Z,90.19
2024-02-13T02:55:56.207Z,90.23
2024-02-13T02:58:43.390Z,89.69
2024-02-13T03:01:29.977Z,90.02
2024-02-13T03:04:15.666Z,89.35
2024-02-13T03:07:01.360Z,89.34
2024-02-13T03:09:46.932Z,89.03
2024-02-13T03:12:33.850Z,89.43
2024-02-13T03:15:20.216Z,89.36
2024-02-13T03:18:08.083Z,89.03
2024-02-13T03:20:54.605Z,88.98
2024-02-13T03:23:40.379Z,89.19
2024-02-13T03:26:27.267Z,88.91
2024-02-13T03:29:12.603Z,88.86
2024-02-13T03:32:00.644Z,88.63
2024-02-13T03:34:46.245Z,89.21
2024-02-13T03:37:33.747Z,88.74
2024-02-13T03:40:19.235Z,88.11
2024-02-13T03:43:05.440Z,88.22
2024-02-13T03:45:50.720Z,88.09
2024-02-13T03:48:37.131Z,88.27
2024-02-13T03:51:24.265Z,88.83
2024-02-13T03:54:12.473Z,88.93
2024-02-13T03:57:01.641Z,88.74
2024-02-13T03:59:47.695Z,88.75
2024-02-13T04:02:34.470Z,88.26
2024-02-13T04:05:21.074Z,88.91
2024-02-13T04:08:09.852Z,88.19
2024-02-13T04:10:55.953Z,88.16
2024-02-13T04:13:42.050Z,88.20
2024-02-13T04:16:28.074Z,88.66
2024-02-13T04:19:13.957Z,88.90
2024-02-13T04:22:00.166Z,88.37
2024-02-13T04:24:45.770Z,88.63
2024-02-13T04:27:33.701Z,88.46
2024-02-13T04:30:19.740Z,88.33
2024-02-13T04:33:08.256Z,87.99
2024-02-13T04:35:54.060Z,87.96
2024-02-13T04:38:40.111Z,87.92
2024-02-13T04:41:26.987Z,87.80
2024-02-13T04:44:14.504Z,87.53
2024-02-13T04:47:00.164Z,87.83
2024-02-13T04:49:46.088Z,88.04
2024-02-13T04:52:31.649Z,88.12
2024-02-13T04:55:17.874Z,88.23
2024-02-13T04:58:08.694Z,88.42
2024-02-13T05:01:03.303Z,88.51
2024-02-13T05:03:49.817Z,89.23
2024-02-13T05:06:54.154Z,88.67
2024-02-13T05:09:39.628Z,89.30
2024-02-13T05:12:26.238Z,88.99
2024-02-13T05:15:11.934Z,89.05
2024-02-13T05:17:58.300Z,89.25
2024-02-13T05:20:45.233Z,89.53
2024-02-13T05:23:31.346Z,88.99
2024-02-13T05:26:19.147Z,89.10
2024-02-13T05:29:09.272Z,89.93
2024-02-13T05:31:54.966Z,89.99
2024-02-13T05:34:41.232Z,89.84
2024-02-13T05:37:26.977Z,90.29
2024-02-13T05:40:13.425Z,90.42
2024-02-13T05:42:59.170Z,90.15
2024-02-13T05:45:45.238Z,90.36
2024-02-13T05:48:30.832Z,90.10
2024-02-13T05:51:16.696Z,89.41
2024-02-13T05:54:07.694Z,89.49
2024-02-13T05:56:53.662Z,89.03
2024-02-13T05:59:40.487Z,89.20
2024-02-13T06:02:28.722Z,88.82
2024-02-13T06:05:16.602Z,88.99
2024-02-13T06:08:02.758Z,88.48
2024-02-13T06:10:48.461Z,88.69
2024-02-13T06:13:35.233Z,89.32
2024-02-13T06:16:21.034Z,89.11
2024-02-13T06:19:07.237Z,88.54
2024-02-13T06:21:52.871Z,88.41
2024-02-13T06:24:39.765Z,88.17
2024-02-13T06:27:25.526Z,88.03
2024-02-13T06:30:12.302Z,87.98
2024-02-13T06:32:58.355Z,87.90
2024-02-13T06:35:44.433Z,88.12
2024-02-13T06:38:50.327Z,87.74
2024-02-13T06:41:38.356Z,87.74
2024-02-13T06:44:24.762Z,88.55
2024-02-13T06:47:31.803Z,88.99
2024-02-13T06:50:18.218Z,88.58
2024-02-13T06:53:04.359Z,88.97
2024-02-13T06:55:51.566Z,88.41
2024-02-13T06:58:39.663Z,87.98
2024-02-13T07:01:25.446Z,87.83
2024-02-13T07:04:14.806Z,88.22
2024-02-13T07:07:18.684Z,88.25
2024-02-13T07:10:32.945Z,88.35
2024-02-13T07:13:18.757Z,88.43
2024-02-13T07:16:08.419Z,88.73
2024-02-13T07:18:54.088Z,88.94
2024-02-13T07:22:00.231Z,88.81
2024-02-13T07:25:05.995Z,88.17
2024-02-13T07:27:52.602Z,87.65
2024-02-13T07:30:38.306Z,87.80
2024-02-13T07:33:24.205Z,87.03
2024-02-13T07:36:11.356Z,86.44
2024-02-13T07:38:57.662Z,86.35
2024-02-13T07:41:45.260Z,85.44
2024-02-13T07:44:31.606Z,85.23
2024-02-13T07:47:17.887Z,84.56
2024-02-13T07:50:04.223Z,84.16
2024-02-13T07:52:49.637Z,83.76
2024-02-13T07:55:36.449Z,83.93
2024-02-13T07:58:21.936Z,83.55
2024-02-13T08:01:11.560Z,83.11
2024-02-13T08:03:57.661Z,83.15
2024-02-13T08:06:43.509Z,83.93
2024-02-13T08:09:29.228Z,83.00
2024-02-13T08:12:17.129Z,82.66
2024-02-13T08:15:24.092Z,83.09
2024-02-13T08:18:29.917Z,83.53
2024-02-13T08:21:35.565Z,83.17
2024-02-13T08:24:41.479Z,83.23
2024-02-13T08:27:28.225Z,83.60
2024-02-13T08:30:14.357Z,82.45
2024-02-13T08:33:01.854Z,82.24
2024-02-13T08:36:08.312Z,81.48
2024-02-13T08:39:13.703Z,82.16
2024-02-13T08:42:19.577Z,82.01
2024-02-13T08:45:26.523Z,82.30
2024-02-13T08:48:12.917Z,80.48
2024-02-13T08:50:58.906Z,80.10
2024-02-13T08:53:45.917Z,79.81
2024-02-13T08:56:51.678Z,80.49
2024-02-13T08:59:57.579Z,79.70
2024-02-13T09:02:43.533Z,79.77
2024-02-13T09:05:49.288Z,79.48
2024-02-13T09:08:56.133Z,78.99
2024-02-13T09:11:42.544Z,79.70
2024-02-13T09:14:48.131Z,78.19
2024-02-13T09:17:54.126Z,77.67
2024-02-13T09:20:40.161Z,77.86
2024-02-13T09:23:29.227Z,78.14
2024-02-13T09:26:15.667Z,79.21
2024-02-13T09:29:02.462Z,77.59
2024-02-13T09:31:48.049Z,77.00
2024-02-13T09:34:34.798Z,75.76
2024-02-13T09:37:21.921Z,77.28
2024-02-13T09:40:16.122Z,77.13
2024-02-13T09:43:02.764Z,76.06
2024-02-13T09:45:50.561Z,76.06
2024-02-13T09:48:38.846Z,75.81
2024-02-13T09:51:25.800Z,75.63
2024-02-13T09:54:12.339Z,74.76
2024-02-13T09:57:01.296Z,74.92
2024-02-13T09:59:47.196Z,75.41
2024-02-13T10:02:33.589Z,75.84
2024-02-13T10:05:22.371Z,75.46
2024-02-13T10:08:09.319Z,75.11
2024-02-13T10:11:05.661Z,75.37
2024-02-13T10:13:51.237Z,76.10
2024-02-13T10:16:36.911Z,76.65
2024-02-13T10:19:22.832Z,76.44
2024-02-13T10:22:11.116Z,76.46
2024-02-13T10:24:57.526Z,75.49
2024-02-13T10:27:43.451Z,75.88
2024-02-13T10:30:32.387Z,75.13
2024-02-13T10:33:20.498Z,74.91
2024-02-13T10:36:07.595Z,74.96
2024-02-13T10:38:56.141Z,74.26
2024-02-13T10:41:46.015Z,73.53
2024-02-13T10:44:37.852Z,73.55
2024-02-13T10:47:47.724Z,73.92
2024-02-13T10:50:55.368Z,73.17
2024-02-13T10:54:03.857Z,73.89
2024-02-13T10:57:09.522Z,73.37
2024-02-13T11:00:16.755Z,73.49
2024-02-13T11:03:23.226Z,74.22
2024-02-13T11:06:09.534Z,72.14
2024-02-13T11:08:57.466Z,72.19
2024-02-13T11:11:45.972Z,71.94
2024-02-13T11:14:31.825Z,72.57
2024-02-13T11:17:18.213Z,72.95
2024-02-13T11:20:10.361Z,73.35
2024-02-13T11:22:59.001Z,73.05
2024-02-13T11:26:01.160Z,73.27
2024-02-13T11:28:48.347Z,73.73
2024-02-13T11:31:34.346Z,73.96
2024-02-13T11:34:20.808Z,73.78
2024-02-13T11:37:20.671Z,73.52
2024-02-13T11:40:08.403Z,74.32
2024-02-13T11:42:54.660Z,74.43
2024-02-13T11:45:40.423Z,74.37
2024-02-13T11:48:32.403Z,74.13
2024-02-13T11:51:23.495Z,74.90
2024-02-13T11:54:10.410Z,74.67
2024-02-13T11:56:57.355Z,74.46
2024-02-13T11:59:45.374Z,73.38
2024-02-13T12:02:31.562Z,74.08
2024-02-13T12:05:20.487Z,73.74
2024-02-13T12:08:29.735Z,73.60
2024-02-13T12:11:36.198Z,73.59
2024-02-13T12:14:42.401Z,74.65
2024-02-13T12:17:48.064Z,72.89
2024-02-13T12:20:59.292Z,72.98
2024-02-13T12:24:07.804Z,73.61
2024-02-13T12:27:13.802Z,73.93
2024-02-13T12:30:20.102Z,75.39
2024-02-13T12:33:29.174Z,75.60
2024-02-13T12:36:41.132Z,75.97
2024-02-13T12:39:47.149Z,76.38
2024-02-13T12:42:52.842Z,77.02
2024-02-13T12:46:04.437Z,76.40
2024-02-13T12:49:10.250Z,77.45
2024-02-13T12:52:16.183Z,77.23
2024-02-13T12:55:22.649Z,77.63
2024-02-13T12:58:28.527Z,78.20
2024-02-13T13:01:34.595Z,78.59
2024-02-13T13:04:41.734Z,78.62
2024-02-13T13:07:47.538Z,78.41
2024-02-13T13:10:53.720Z,78.10
2024-02-13T13:13:59.495Z,78.54
2024-02-13T13:17:05.322Z,78.65
2024-02-13T13:20:10.817Z,78.37
2024-02-13T13:23:17.766Z,77.45
2024-02-13T13:26:23.521Z,76.61
2024-02-13T13:29:29.884Z,75.75
2024-02-13T13:32:35.753Z,75.00
2024-02-13T13:35:41.363Z,74.62
2024-02-13T13:38:46.787Z,74.55
2024-02-13T13:41:53.047Z,73.73
2024-02-13T13:44:58.877Z,74.33
2024-02-13T13:48:05.904Z,74.44
2024-02-13T13:51:13.189Z,74.50
2024-02-13T13:54:19.136Z,74.47
2024-02-13T13:57:24.865Z,74.12
2024-02-13T14:00:31.611Z,73.99
2024-02-13T14:03:37.186Z,74.44
2024-02-13T14:06:43.120Z,74.60
2024-02-13T14:09:48.710Z,74.71
2024-02-13T14:12:54.256Z,75.25
2024-02-13T14:16:00.003Z,75.30
2024-02-13T14:19:05.553Z,75.12
2024-02-13T14:22:11.581Z,75.03
2024-02-13T14:25:17.499Z,75.16
2024-02-13T14:28:24.201Z,74.40
2024-02-13T14:31:29.477Z,75.02
2024-02-13T14:34:35.018Z,74.83
2024-02-13T14:37:40.908Z,74.74
2024-02-13T14:40:47.041Z,73.62
2024-02-13T14:43:52.629Z,73.82
2024-02-13T14:46:58.385Z,73.51
2024-02-13T14:50:04.231Z,73.54
2024-02-13T14:53:10.429Z,74.07
2024-02-13T14:56:16.021Z,73.96
2024-02-13T14:59:22.103Z,73.49
2024-02-13T15:02:32.641Z,73.50
2024-02-13T15:05:39.225Z,74.29
2024-02-13T15:08:44.830Z,73.69
2024-02-13T15:11:50.736Z,73.50
2024-02-13T15:14:56.711Z,73.70
2024-02-13T15:17:42.843Z,73.45
2024-02-13T15:20:29.074Z,73.59
2024-02-13T15:23:15.268Z,73.72
2024-02-13T15:26:01.022Z,72.92
2024-02-13T15:28:48.293Z,72.94
2024-02-13T15:31:34.403Z,72.85
2024-02-13T15:34:20.122Z,73.40
2024-02-13T15:37:06.316Z,73.07
2024-02-13T15:40:10.412Z,72.71
2024-02-13T15:43:15.283Z,72.96
2024-02-13T15:46:19.218Z,73.12
2024-02-13T15:49:25.364Z,72.84
2024-02-13T15:52:34.497Z,73.00
2024-02-13T15:55:40.569Z,72.94
2024-02-13T15:58:46.325Z,73.09
2024-02-13T16:01:51.816Z,72.45
2024-02-13T16:04:57.372Z,72.75
2024-02-13T16:08:03.751Z,72.48
2024-02-13T16:11:09.244Z,72.99
2024-02-13T16:14:14.856Z,72.82
2024-02-13T16:17:20.882Z,73.25
2024-02-13T16:20:29.784Z,73.18
2024-02-13T16:23:35.990Z,73.49
2024-02-13T16:26:42.467Z,72.79
2024-02-13T16:29:48.201Z,72.78
2024-02-13T16:32:57.956Z,72.61
2024-02-13T16:36:03.463Z,72.52
2024-02-13T16:39:09.493Z,72.96
2024-02-13T16:42:15.418Z,72.83
2024-02-13T16:45:21.021Z,73.06
2024-02-13T16:48:27.072Z,73.12
2024-02-13T16:51:32.903Z,72.71
2024-02-13T16:54:39.091Z,73.07
2024-02-13T16:57:45.337Z,73.32
2024-02-13T17:00:52.067Z,73.92
2024-02-13T17:03:58.439Z,73.79
2024-02-13T17:07:04.282Z,73.89
2024-02-13T17:10:11.081Z,74.14
2024-02-13T17:13:16.915Z,74.39
2024-02-13T17:16:22.668Z,74.40
2024-02-13T17:19:28.405Z,74.70
2024-02-13T17:22:34.255Z,74.96
2024-02-13T17:25:39.860Z,74.85
2024-02-13T17:28:47.874Z,75.17
2024-02-13T17:32:37.698Z,75.71
2024-02-13T17:36:29.589Z,75.46
2024-02-13T17:40:15.052Z,75.88
2024-02-13T17:44:01.076Z,76.03
2024-02-13T17:48:03.977Z,76.30
2024-02-13T17:51:58.452Z,76.82
2024-02-13T17:55:44.628Z,77.09
2024-02-13T17:59:30.276Z,77.18
2024-02-13T18:03:16.693Z,77.16
2024-02-13T18:06:57.870Z,77.24
2024-02-13T18:10:43.482Z,77.61
2024-02-13T18:14:28.962Z,77.52
2024-02-13T18:18:14.657Z,77.49
2024-02-13T18:22:00.879Z,77.74
2024-02-13T18:25:06.890Z,78.07
2024-02-13T18:27:52.533Z,78.20
2024-02-13T18:30:57.846Z,78.99
2024-02-13T18:34:05.582Z,79.20
2024-02-13T18:36:51.310Z,80.28
2024-02-13T18:39:57.158Z,80.55
2024-02-13T18:43:03.161Z,80.93
2024-02-13T18:46:10.682Z,81.88
2024-02-13T18:49:16.217Z,81.70
2024-02-13T18:52:23.217Z,81.68
2024-02-13T18:55:30.918Z,81.20
2024-02-13T18:58:37.777Z,81.57
2024-02-13T19:01:23.509Z,81.46
2024-02-13T19:04:10.424Z,81.99
2024-02-13T19:06:56.864Z,82.00
2024-02-13T19:09:44.422Z,81.84
2024-02-13T19:12:31.395Z,82.15
2024-02-13T19:15:37.384Z,81.96
2024-02-13T19:18:48.212Z,82.46
2024-02-13T19:21:54.233Z,82.75
2024-02-13T19:24:59.871Z,82.61
2024-02-13T19:28:06.357Z,82.42
2024-02-13T19:31:11.737Z,82.50
2024-02-13T19:34:17.347Z,83.02
2024-02-13T19:37:22.985Z,83.75
2024-02-13T19:40:29.468Z,84.16
2024-02-13T19:43:35.066Z,84.26
2024-02-13T19:46:43.645Z,84.05
2024-02-13T19:49:49.776Z,84.51
2024-02-13T19:52:55.800Z,84.42
2024-02-13T19:56:01.270Z,83.98
2024-02-13T19:59:07.086Z,83.72
2024-02-13T20:02:12.860Z,83.46
2024-02-13T20:05:18.425Z,83.08
2024-02-13T20:08:24.495Z,82.59
2024-02-13T20:11:30.838Z,81.94
2024-02-13T20:14:36.794Z,81.88
2024-02-13T20:17:44.142Z,81.65
2024-02-13T20:20:50.297Z,81.88
2024-02-13T20:23:56.019Z,82.02
2024-02-13T20:27:01.945Z,81.75
2024-02-13T20:30:07.995Z,81.81
2024-02-13T20:33:16.972Z,81.92
2024-02-13T20:36:24.424Z,81.65
2024-02-13T20:39:18.670Z,81.54
2024-02-13T20:42:05.791Z,81.44
2024-02-13T20:45:20.557Z,80.90
2024-02-13T20:48:28.754Z,81.44
2024-02-13T20:51:35.003Z,81.17
2024-02-13T20:55:21.745Z,81.26
2024-02-13T20:59:07.329Z,81.16
2024-02-13T21:02:52.860Z,81.01
2024-02-13T21:06:41.270Z,81.16
2024-02-13T21:10:29.121Z,80.74
2024-02-13T21:14:14.614Z,80.55
2024-02-13T21:18:00.095Z,80.48
2024-02-13T21:21:05.604Z,80.40
2024-02-13T21:23:54.506Z,79.85
2024-02-13T21:26:41.146Z,80.34
2024-02-13T21:29:27.630Z,80.12
2024-02-13T21:32:15.099Z,80.15
2024-02-13T21:35:02.298Z,79.90
2024-02-13T21:37:48.304Z,79.75
2024-02-13T21:40:35.093Z,80.28
2024-02-13T21:43:21.664Z,80.68
2024-02-13T21:46:08.722Z,80.59
2024-02-13T21:48:54.535Z,80.82
2024-02-13T21:51:41.303Z,80.63
2024-02-13T21:54:26.717Z,80.12
2024-02-13T21:57:32.589Z,80.17
2024-02-13T22:00:38.341Z,79.44
2024-02-13T22:03:40.735Z,78.69
2024-02-13T22:06:30.315Z,78.23
2024-02-13T22:09:16.391Z,78.36
2024-02-13T22:12:04.132Z,77.95
2024-02-13T22:19:22.106Z,78.23
2024-02-13T22:22:08.192Z,78.66
2024-02-13T22:24:54.008Z,78.83
2024-02-13T22:27:40.239Z,78.99
2024-02-13T22:30:26.336Z,79.43
2024-02-13T22:33:13.072Z,79.65
2024-02-13T22:35:58.893Z,79.91
2024-02-13T22:38:45.229Z,79.79
2024-02-13T22:41:31.246Z,79.15
2024-02-13T22:44:18.420Z,78.94
2024-02-13T22:47:05.626Z,78.60
2024-02-13T22:49:51.121Z,78.47
2024-02-13T22:52:37.271Z,77.93
2024-02-13T22:55:23.181Z,77.68
2024-02-13T22:58:09.372Z,77.28
2024-02-13T23:00:59.474Z,77.21
2024-02-13T23:03:47.080Z,76.78
2024-02-13T23:06:32.941Z,77.20
2024-02-13T23:09:19.636Z,76.19
2024-02-13T23:12:05.438Z,76.33
2024-02-13T23:14:52.080Z,75.71
2024-02-13T23:17:38.808Z,75.88
2024-02-13T23:20:27.640Z,75.63
2024-02-13T23:23:13.518Z,76.17
2024-02-13T23:25:59.622Z,75.82
2024-02-13T23:28:52.530Z,75.91
2024-02-13T23:31:42.772Z,76.35
2024-02-13T23:34:28.724Z,76.94
2024-02-13T23:37:14.575Z,77.39
2024-02-13T23:40:00.182Z,77.93
2024-02-13T23:42:49.857Z,77.32
2024-02-13T23:45:35.481Z,77.72
2024-02-13T23:48:22.903Z,77.64
2024-02-13T23:51:09.971Z,77.63
2024-02-13T23:53:55.853Z,77.93
2024-02-13T23:56:41.536Z,77.87
2024-02-13T23:59:27.982Z,77.93
